createdAt,value
2019-02-19T00:01:29.621Z,4.10
2019-02-19T00:03:58.081Z,4.10
2019-02-19T00:06:27.446Z,4.10
2019-02-19T00:08:56.826Z,4.10
2019-02-19T00:11:25.278Z,4.10
2019-02-19T00:13:53.651Z,4.10
2019-02-19T00:16:23.665Z,4.10
2019-02-19T00:18:52.079Z,4.20
2019-02-19T00:21:22.147Z,4.20
2019-02-19T00:23:50.558Z,4.20
2019-02-19T00:26:19.249Z,4.20
2019-02-19T00:28:47.737Z,4.10
2019-02-19T00:31:16.120Z,4.00
2019-02-19T00:33:44.535Z,4.10
2019-02-19T00:36:12.960Z,4.00
2019-02-19T00:38:41.344Z,4.00
2019-02-19T00:41:09.826Z,4.00
2019-02-19T00:43:38.223Z,4.00
2019-02-19T00:46:06.644Z,3.90
2019-02-19T00:48:35.033Z,3.90
2019-02-19T00:51:03.426Z,3.90
2019-02-19T00:53:31.846Z,3.80
2019-02-19T00:56:00.294Z,3.80
2019-02-19T00:58:28.678Z,3.80
2019-02-19T01:00:57.099Z,3.80
2019-02-19T01:03:25.506Z,3.80
2019-02-19T01:05:53.885Z,3.70
2019-02-19T01:08:22.317Z,3.70
2019-02-19T01:10:50.707Z,3.70
2019-02-19T01:13:19.096Z,3.70
2019-02-19T01:15:48.593Z,3.70
2019-02-19T01:18:23.434Z,3.70
2019-02-19T01:20:57.644Z,3.70
2019-02-19T01:23:26.459Z,3.80
2019-02-19T01:25:54.859Z,3.80
2019-02-19T01:28:23.294Z,3.80
2019-02-19T01:30:51.739Z,3.70
2019-02-19T01:33:29.716Z,3.70
2019-02-19T01:35:58.196Z,3.80
2019-02-19T01:38:26.578Z,3.70
2019-02-19T01:40:55.870Z,3.70
2019-02-19T01:43:24.282Z,3.70
2019-02-19T01:45:52.712Z,3.70
2019-02-19T01:48:21.097Z,3.70
2019-02-19T01:50:49.525Z,3.70
2019-02-19T01:53:17.939Z,3.60
2019-02-19T01:55:46.339Z,3.70
2019-02-19T01:58:14.746Z,3.60
2019-02-19T02:00:43.202Z,3.60
2019-02-19T02:03:11.594Z,3.60
2019-02-19T02:05:40.048Z,3.60
2019-02-19T02:08:08.428Z,3.50
2019-02-19T02:10:36.815Z,3.50
2019-02-19T02:13:07.579Z,3.40
2019-02-19T02:15:42.440Z,3.40
2019-02-19T02:18:06.149Z,3.30
2019-02-19T02:20:34.576Z,3.30
2019-02-19T02:23:03.948Z,3.20
2019-02-19T02:25:32.324Z,3.20
2019-02-19T02:28:00.752Z,3.20
2019-02-19T02:30:29.155Z,3.20
2019-02-19T02:32:57.531Z,3.20
2019-02-19T02:35:25.925Z,3.20
2019-02-19T02:37:54.320Z,3.10
2019-02-19T02:40:22.805Z,3.10
2019-02-19T02:42:51.177Z,3.10
2019-02-19T02:45:19.640Z,3.10
2019-02-19T02:47:48.033Z,3.10
2019-02-19T02:50:18.324Z,3.00
2019-02-19T02:52:47.886Z,3.00
2019-02-19T02:55:17.312Z,3.00
2019-02-19T02:57:45.694Z,2.90
2019-02-19T03:00:14.195Z,2.90
2019-02-19T03:02:44.524Z,2.90
2019-02-19T03:05:12.920Z,2.90
2019-02-19T03:07:45.829Z,2.90
2019-02-19T03:10:14.252Z,2.80
2019-02-19T03:12:42.654Z,2.80
2019-02-19T03:15:11.552Z,2.70
2019-02-19T03:17:39.944Z,2.70
2019-02-19T03:20:08.350Z,2.70
2019-02-19T03:22:36.780Z,2.70
2019-02-19T03:25:05.436Z,2.70
2019-02-19T03:27:33.836Z,2.60
2019-02-19T03:30:02.228Z,2.60
2019-02-19T03:32:30.677Z,2.60
2019-02-19T03:34:59.114Z,2.60
2019-02-19T03:37:27.516Z,2.60
2019-02-19T03:39:55.920Z,2.60
2019-02-19T03:42:24.355Z,2.60
2019-02-19T03:44:52.767Z,2.60
2019-02-19T03:47:27.129Z,2.70
2019-02-19T03:49:55.523Z,2.70
2019-02-19T03:52:24.236Z,2.70
2019-02-19T03:54:52.663Z,2.70
2019-02-19T03:57:21.058Z,2.60
2019-02-19T03:59:50.471Z,2.60
2019-02-19T04:02:18.904Z,2.60
2019-02-19T04:04:47.287Z,2.50
2019-02-19T04:07:15.984Z,2.50
2019-02-19T04:09:44.395Z,2.50
2019-02-19T04:12:12.853Z,2.50
2019-02-19T04:14:41.249Z,2.50
2019-02-19T04:17:09.709Z,2.50
2019-02-19T04:19:38.060Z,2.50
2019-02-19T04:22:08.092Z,2.20
2019-02-19T04:24:37.481Z,2.40
2019-02-19T04:27:05.923Z,2.40
2019-02-19T04:29:35.251Z,2.40
2019-02-19T04:32:03.637Z,2.30
2019-02-19T04:34:32.481Z,2.30
2019-02-19T04:37:00.856Z,2.30
2019-02-19T04:39:31.594Z,2.30
2019-02-19T04:42:00.967Z,2.30
2019-02-19T04:44:29.356Z,2.30
2019-02-19T04:46:59.723Z,2.20
2019-02-19T04:49:28.451Z,2.20
2019-02-19T04:51:56.853Z,2.20
2019-02-19T04:54:25.358Z,2.10
2019-02-19T04:56:54.075Z,2.10
2019-02-19T04:59:22.470Z,2.10
2019-02-19T05:01:50.912Z,2.10
2019-02-19T05:04:19.291Z,2.10
2019-02-19T05:06:47.700Z,2.10
2019-02-19T05:09:16.132Z,2.00
2019-02-19T05:11:45.471Z,2.00
2019-02-19T05:14:13.867Z,2.00
2019-02-19T05:16:42.311Z,2.00
2019-02-19T05:19:10.724Z,2.00
2019-02-19T05:21:39.213Z,2.00
2019-02-19T05:24:07.674Z,2.00
2019-02-19T05:26:36.068Z,2.00
2019-02-19T05:29:04.458Z,1.90
2019-02-19T05:31:32.904Z,1.90
2019-02-19T05:34:01.289Z,1.90
2019-02-19T05:36:29.694Z,1.90
2019-02-19T05:38:58.109Z,1.90
2019-02-19T05:41:26.517Z,1.80
2019-02-19T05:43:54.889Z,1.80
2019-02-19T05:46:23.312Z,1.80
2019-02-19T05:48:51.748Z,1.80
2019-02-19T05:51:20.201Z,1.80
2019-02-19T05:53:48.575Z,1.80
2019-02-19T05:56:16.961Z,1.70
2019-02-19T05:58:45.387Z,1.70
2019-02-19T06:01:13.771Z,1.70
2019-02-19T06:03:42.204Z,1.70
2019-02-19T06:06:11.533Z,1.80
2019-02-19T06:08:40.900Z,1.80
2019-02-19T06:11:12.450Z,1.80
2019-02-19T06:13:40.883Z,1.80
2019-02-19T06:16:09.307Z,1.80
2019-02-19T06:18:37.686Z,1.80
2019-02-19T06:21:06.119Z,1.80
2019-02-19T06:23:34.535Z,1.80
2019-02-19T06:26:02.983Z,1.90
2019-02-19T06:28:31.494Z,1.90
2019-02-19T06:30:59.883Z,2.00
2019-02-19T06:33:28.270Z,2.00
2019-02-19T06:35:56.692Z,2.00
2019-02-19T06:38:25.193Z,2.10
2019-02-19T06:40:53.560Z,2.10
2019-02-19T06:43:22.507Z,2.20
2019-02-19T06:45:50.939Z,2.20
2019-02-19T06:48:19.357Z,2.30
2019-02-19T06:50:48.786Z,2.30
2019-02-19T06:53:17.186Z,2.40
2019-02-19T06:55:45.580Z,2.40
2019-02-19T06:58:20.841Z,2.50
2019-02-19T07:00:49.252Z,2.50
2019-02-19T07:03:19.314Z,2.60
2019-02-19T07:05:47.694Z,2.60
2019-02-19T07:08:16.162Z,2.70
2019-02-19T07:10:44.547Z,2.80
2019-02-19T07:13:12.947Z,2.80
2019-02-19T07:15:41.334Z,2.90
2019-02-19T07:18:09.872Z,3.00
2019-02-19T07:20:38.289Z,3.10
2019-02-19T07:23:06.714Z,3.20
2019-02-19T07:25:35.177Z,3.30
2019-02-19T07:28:05.647Z,3.40
2019-02-19T07:30:34.136Z,3.50
2019-02-19T07:33:03.489Z,3.60
2019-02-19T07:35:31.843Z,3.80
2019-02-19T07:38:02.182Z,4.30
2019-02-19T07:40:30.592Z,6.40
2019-02-19T07:42:59.147Z,8.40
2019-02-19T07:45:28.530Z,10.10
2019-02-19T07:47:56.935Z,11.60
2019-02-19T07:50:26.745Z,12.90
2019-02-19T07:52:55.147Z,13.90
2019-02-19T07:55:30.249Z,14.60
2019-02-19T07:57:58.699Z,15.40
2019-02-19T08:00:27.434Z,16.50
2019-02-19T08:02:55.862Z,17.00
2019-02-19T08:05:24.364Z,17.30
2019-02-19T08:07:52.861Z,18.00
2019-02-19T08:10:21.621Z,18.70
2019-02-19T08:12:50.005Z,19.40
2019-02-19T08:15:18.437Z,20.10
2019-02-19T08:17:46.891Z,20.50
2019-02-19T08:20:16.321Z,20.70
2019-02-19T08:22:44.948Z,20.90
2019-02-19T08:25:14.375Z,21.30
2019-02-19T08:27:42.852Z,21.60
2019-02-19T08:30:11.341Z,22.00
2019-02-19T08:32:39.759Z,22.40
2019-02-19T08:35:08.180Z,23.00
2019-02-19T08:37:36.998Z,23.50
2019-02-19T08:40:07.908Z,23.70
2019-02-19T08:42:36.381Z,24.00
2019-02-19T08:45:06.390Z,24.20
2019-02-19T08:47:42.261Z,24.10
2019-02-19T08:50:06.863Z,24.20
2019-02-19T08:52:35.260Z,24.40
2019-02-19T08:55:03.705Z,24.70
2019-02-19T08:57:32.146Z,25.10
2019-02-19T09:00:00.538Z,25.30
2019-02-19T09:02:28.935Z,25.70
2019-02-19T09:04:57.388Z,26.20
2019-02-19T09:07:25.771Z,26.50
2019-02-19T09:09:54.160Z,26.40
2019-02-19T09:12:22.945Z,26.00
2019-02-19T09:14:51.333Z,25.70
2019-02-19T09:17:19.730Z,25.60
2019-02-19T09:19:48.146Z,25.60
2019-02-19T09:22:16.570Z,25.40
2019-02-19T09:24:45.864Z,25.40
2019-02-19T09:27:14.679Z,25.60
2019-02-19T09:29:43.115Z,25.70
2019-02-19T09:32:11.839Z,25.70
2019-02-19T09:34:40.222Z,25.40
2019-02-19T09:37:08.654Z,25.50
2019-02-19T09:39:37.062Z,25.40
2019-02-19T09:42:05.464Z,25.40
2019-02-19T09:44:33.856Z,25.40
2019-02-19T09:47:02.297Z,25.60
2019-02-19T09:49:30.706Z,25.90
2019-02-19T09:51:59.099Z,26.30
2019-02-19T09:54:27.613Z,26.70
2019-02-19T09:56:55.988Z,26.60
2019-02-19T09:59:24.407Z,26.40
2019-02-19T10:01:52.820Z,26.40
2019-02-19T10:04:21.222Z,26.20
2019-02-19T10:06:49.626Z,26.40
2019-02-19T10:09:18.084Z,26.50
2019-02-19T10:11:46.493Z,25.40
2019-02-19T10:14:14.875Z,23.60
2019-02-19T10:16:43.267Z,22.00
2019-02-19T10:19:11.755Z,21.10
2019-02-19T10:21:40.157Z,20.50
2019-02-19T10:24:08.720Z,19.50
2019-02-19T10:26:37.142Z,18.50
2019-02-19T10:29:05.587Z,17.60
2019-02-19T10:31:34.440Z,16.90
2019-02-19T10:34:02.843Z,16.40
2019-02-19T10:36:31.230Z,16.00
2019-02-19T10:38:59.665Z,15.60
2019-02-19T10:41:28.075Z,15.40
2019-02-19T10:43:56.476Z,15.30
2019-02-19T10:46:24.872Z,15.10
2019-02-19T10:48:53.318Z,15.00
2019-02-19T10:51:21.745Z,14.90
2019-02-19T10:53:50.454Z,14.70
2019-02-19T10:56:18.871Z,14.70
2019-02-19T10:58:47.352Z,14.50
2019-02-19T11:01:15.917Z,14.50
2019-02-19T11:03:44.335Z,14.40
2019-02-19T11:06:12.761Z,14.40
2019-02-19T11:08:41.194Z,14.30
2019-02-19T11:11:09.606Z,14.20
2019-02-19T11:13:38.001Z,14.20
2019-02-19T11:16:06.724Z,14.10
2019-02-19T11:18:35.114Z,14.10
2019-02-19T11:21:03.513Z,14.00
2019-02-19T11:23:33.678Z,13.90
2019-02-19T11:26:02.171Z,13.90
2019-02-19T11:28:30.516Z,13.80
2019-02-19T11:30:58.944Z,13.80
2019-02-19T11:33:27.347Z,13.70
2019-02-19T11:35:55.760Z,13.70
2019-02-19T11:38:24.208Z,13.60
2019-02-19T11:40:52.657Z,13.60
2019-02-19T11:43:21.055Z,13.60
2019-02-19T11:45:49.477Z,13.50
2019-02-19T11:48:19.157Z,13.40
2019-02-19T11:50:47.685Z,13.40
2019-02-19T11:53:16.099Z,13.40
2019-02-19T11:55:44.508Z,13.40
2019-02-19T11:58:12.944Z,13.30
2019-02-19T12:00:43.200Z,13.30
2019-02-19T12:03:11.620Z,13.30
2019-02-19T12:05:40.025Z,13.20
2019-02-19T12:08:08.453Z,13.20
2019-02-19T12:10:36.875Z,13.20
2019-02-19T12:13:05.289Z,13.10
2019-02-19T12:15:35.449Z,13.10
2019-02-19T12:18:03.752Z,13.10
2019-02-19T12:20:32.160Z,13.10
2019-02-19T12:23:00.541Z,13.10
2019-02-19T12:25:29.265Z,13.00
2019-02-19T12:27:57.643Z,13.00
2019-02-19T12:30:26.073Z,13.00
2019-02-19T12:32:54.463Z,12.90
2019-02-19T12:35:22.854Z,12.90
2019-02-19T12:37:51.308Z,13.00
2019-02-19T12:40:19.708Z,12.90
2019-02-19T12:42:48.158Z,13.00
2019-02-19T12:45:16.573Z,13.00
2019-02-19T12:47:44.985Z,13.00
2019-02-19T12:50:18.213Z,13.00
2019-02-19T12:52:46.631Z,13.00
2019-02-19T12:55:15.059Z,13.00
2019-02-19T12:57:43.766Z,12.90
2019-02-19T13:00:19.562Z,12.90
2019-02-19T13:02:47.958Z,12.90
2019-02-19T13:05:16.820Z,12.80
2019-02-19T13:07:46.990Z,12.80
2019-02-19T13:10:15.280Z,12.80
2019-02-19T13:12:43.687Z,12.80
2019-02-19T13:15:14.417Z,12.80
2019-02-19T13:17:42.827Z,12.90
2019-02-19T13:20:14.621Z,12.90
2019-02-19T13:22:43.045Z,12.90
2019-02-19T13:25:12.058Z,12.90
2019-02-19T13:27:40.775Z,12.80
2019-02-19T13:30:22.220Z,12.80
2019-02-19T13:32:50.604Z,12.80
2019-02-19T13:35:19.013Z,12.80
2019-02-19T13:37:47.410Z,12.80
2019-02-19T13:40:18.747Z,12.80
2019-02-19T13:42:48.141Z,12.70
2019-02-19T13:45:16.512Z,12.80
2019-02-19T13:47:45.056Z,12.70
2019-02-19T13:50:22.132Z,12.70
2019-02-19T13:52:52.220Z,12.70
2019-02-19T13:55:22.273Z,12.60
2019-02-19T13:57:50.655Z,12.60
2019-02-19T14:00:20.785Z,12.60
2019-02-19T14:02:49.217Z,12.60
2019-02-19T14:05:17.616Z,12.60
2019-02-19T14:07:46.034Z,12.60
2019-02-19T14:10:14.434Z,12.50
2019-02-19T14:12:42.827Z,12.50
2019-02-19T14:15:30.434Z,12.50
2019-02-19T14:17:59.548Z,12.40
2019-02-19T14:20:29.591Z,12.40
2019-02-19T14:22:59.648Z,12.40
2019-02-19T14:25:35.628Z,12.40
2019-02-19T14:28:22.117Z,12.30
2019-02-19T14:30:52.204Z,12.20
2019-02-19T14:33:28.232Z,12.20
2019-02-19T14:36:01.016Z,12.10
2019-02-19T14:38:40.094Z,12.10
2019-02-19T14:41:10.173Z,12.00
2019-02-19T14:43:40.208Z,12.00
2019-02-19T14:46:18.976Z,11.90
2019-02-19T14:49:05.123Z,11.90
2019-02-19T14:51:51.705Z,11.90
2019-02-19T14:54:33.885Z,11.90
2019-02-19T14:57:06.588Z,11.80
2019-02-19T14:59:39.244Z,11.80
2019-02-19T15:02:09.272Z,11.80
2019-02-19T15:04:39.375Z,11.70
2019-02-19T15:07:18.780Z,11.70
2019-02-19T15:09:57.529Z,11.60
2019-02-19T15:12:42.561Z,11.60
2019-02-19T15:15:31.000Z,11.50
2019-02-19T15:18:12.996Z,11.50
2019-02-19T15:20:48.812Z,11.40
2019-02-19T15:23:35.084Z,11.40
2019-02-19T15:26:11.021Z,11.30
2019-02-19T15:28:41.038Z,11.20
2019-02-19T15:31:29.340Z,11.10
2019-02-19T15:34:11.688Z,11.10
2019-02-19T15:36:42.037Z,11.00
2019-02-19T15:39:24.078Z,10.90
2019-02-19T15:41:56.884Z,10.90
2019-02-19T15:44:26.925Z,10.80
2019-02-19T15:47:06.424Z,10.80
2019-02-19T15:49:51.377Z,10.70
2019-02-19T15:52:21.854Z,10.70
2019-02-19T15:54:57.583Z,10.60
2019-02-19T15:57:39.715Z,10.60
2019-02-19T16:00:27.080Z,10.50
2019-02-19T16:02:57.136Z,10.40
2019-02-19T16:05:39.286Z,10.40
2019-02-19T16:08:24.668Z,10.40
2019-02-19T16:11:06.541Z,10.30
2019-02-19T16:13:48.851Z,10.30
2019-02-19T16:16:24.834Z,10.20
2019-02-19T16:19:00.929Z,10.20
2019-02-19T16:21:34.100Z,10.20
2019-02-19T16:24:04.168Z,10.10
2019-02-19T16:26:34.203Z,10.10
2019-02-19T16:29:07.073Z,10.10
2019-02-19T16:31:40.135Z,10.10
2019-02-19T16:34:26.386Z,10.10
2019-02-19T16:36:59.211Z,10.00
2019-02-19T16:39:35.324Z,10.00
2019-02-19T16:42:08.629Z,9.90
2019-02-19T16:44:41.563Z,9.90
2019-02-19T16:47:11.608Z,9.90
2019-02-19T16:49:47.428Z,9.80
2019-02-19T16:52:23.305Z,9.80
2019-02-19T16:54:53.358Z,9.80
2019-02-19T16:57:26.407Z,9.70
2019-02-19T16:59:56.463Z,9.70
2019-02-19T17:02:42.800Z,9.60
2019-02-19T17:05:27.732Z,9.60
2019-02-19T17:07:58.145Z,9.60
2019-02-19T17:10:31.042Z,9.50
2019-02-19T17:13:01.143Z,9.50
2019-02-19T17:15:34.296Z,9.40
2019-02-19T17:18:04.318Z,9.40
2019-02-19T17:20:40.488Z,9.40
2019-02-19T17:23:26.677Z,9.30
2019-02-19T17:26:06.833Z,9.30
2019-02-19T17:28:39.607Z,9.30
2019-02-19T17:31:09.648Z,9.30
2019-02-19T17:33:41.649Z,9.30
2019-02-19T17:36:23.664Z,9.20
2019-02-19T17:38:53.749Z,9.20
2019-02-19T17:41:33.047Z,9.20
2019-02-19T17:44:11.992Z,9.20
2019-02-19T17:46:42.063Z,9.20
2019-02-19T17:49:12.114Z,9.20
2019-02-19T17:51:45.141Z,9.20
2019-02-19T17:54:18.728Z,9.30
2019-02-19T17:56:51.538Z,9.40
2019-02-19T17:59:24.530Z,9.50
2019-02-19T18:02:11.099Z,9.50
2019-02-19T18:04:41.135Z,9.60
2019-02-19T18:07:20.131Z,9.70
2019-02-19T18:10:05.468Z,9.80
2019-02-19T18:12:41.293Z,9.80
2019-02-19T18:15:14.279Z,9.90
2019-02-19T18:18:01.065Z,10.00
2019-02-19T18:20:29.470Z,10.00
2019-02-19T18:22:57.867Z,10.00
2019-02-19T18:25:26.277Z,10.00
2019-02-19T18:27:54.681Z,10.00
2019-02-19T18:30:23.123Z,10.00
2019-02-19T18:32:52.859Z,10.00
2019-02-19T18:35:23.000Z,10.00
2019-02-19T18:37:52.356Z,10.00
2019-02-19T18:40:20.796Z,10.10
2019-02-19T18:42:50.354Z,10.10
2019-02-19T18:45:19.713Z,10.10
2019-02-19T18:47:48.118Z,10.10
2019-02-19T18:50:16.526Z,10.10
2019-02-19T18:52:45.923Z,10.10
2019-02-19T18:55:15.297Z,10.00
2019-02-19T18:57:44.444Z,10.00
2019-02-19T19:00:13.423Z,10.00
2019-02-19T19:02:42.763Z,10.00
2019-02-19T19:05:11.156Z,9.80
2019-02-19T19:07:39.568Z,10.00
2019-02-19T19:10:10.339Z,10.00
2019-02-19T19:12:38.724Z,9.90
2019-02-19T19:15:11.522Z,9.90
2019-02-19T19:17:39.941Z,9.90
2019-02-19T19:20:10.593Z,9.80
2019-02-19T19:22:38.987Z,9.80
2019-02-19T19:25:07.894Z,9.70
2019-02-19T19:27:36.296Z,9.70
2019-02-19T19:30:07.956Z,9.60
2019-02-19T19:32:36.418Z,9.60
2019-02-19T19:35:06.940Z,9.50
2019-02-19T19:37:35.359Z,9.50
2019-02-19T19:40:04.745Z,9.50
2019-02-19T19:42:33.125Z,9.50
2019-02-19T19:45:01.566Z,9.40
2019-02-19T19:47:30.008Z,9.40
2019-02-19T19:49:58.392Z,9.40
2019-02-19T19:52:26.778Z,9.40
2019-02-19T19:54:55.178Z,9.40
2019-02-19T19:57:23.739Z,9.30
2019-02-19T19:59:52.189Z,9.30
2019-02-19T20:02:20.572Z,9.30
2019-02-19T20:04:48.980Z,9.20
2019-02-19T20:07:17.451Z,9.20
2019-02-19T20:09:45.956Z,9.20
2019-02-19T20:12:14.362Z,9.10
2019-02-19T20:14:42.750Z,9.10
2019-02-19T20:17:11.160Z,9.00
2019-02-19T20:19:39.596Z,8.90
2019-02-19T20:22:07.976Z,8.90
2019-02-19T20:24:36.425Z,8.90
2019-02-19T20:27:04.890Z,8.90
2019-02-19T20:29:34.280Z,8.90
2019-02-19T20:32:02.808Z,8.90
2019-02-19T20:34:31.142Z,8.90
2019-02-19T20:36:59.548Z,8.90
2019-02-19T20:39:27.987Z,8.90
2019-02-19T20:41:56.366Z,8.90
2019-02-19T20:44:24.803Z,8.90
2019-02-19T20:46:53.223Z,8.90
2019-02-19T20:49:21.688Z,8.90
2019-02-19T20:51:50.060Z,8.80
2019-02-19T20:54:18.458Z,8.80
2019-02-19T20:56:47.226Z,8.80
2019-02-19T20:59:15.649Z,8.80
2019-02-19T21:01:44.036Z,8.70
2019-02-19T21:04:12.462Z,8.70
2019-02-19T21:06:40.881Z,8.70
2019-02-19T21:09:09.372Z,8.70
2019-02-19T21:11:38.103Z,8.70
2019-02-19T21:14:06.503Z,8.70
2019-02-19T21:16:34.924Z,8.60
2019-02-19T21:19:04.930Z,8.60
2019-02-19T21:21:33.539Z,8.60
2019-02-19T21:24:01.952Z,8.50
2019-02-19T21:26:32.061Z,8.50
2019-02-19T21:29:00.541Z,8.50
2019-02-19T21:31:29.021Z,8.40
2019-02-19T21:33:57.409Z,8.40
2019-02-19T21:36:26.158Z,8.40
2019-02-19T21:38:54.810Z,8.30
2019-02-19T21:41:23.160Z,8.20
2019-02-19T21:43:51.902Z,8.10
2019-02-19T21:46:20.301Z,8.00
2019-02-19T21:48:50.070Z,7.90
2019-02-19T21:51:18.551Z,7.80
2019-02-19T21:53:47.067Z,7.70
2019-02-19T21:56:15.471Z,7.60
2019-02-19T21:58:43.845Z,7.50
2019-02-19T22:01:12.301Z,7.40
2019-02-19T22:03:40.702Z,7.40
2019-02-19T22:06:09.091Z,7.40
2019-02-19T22:08:37.515Z,7.40
2019-02-19T22:11:06.077Z,7.40
2019-02-19T22:13:34.475Z,7.40
2019-02-19T22:16:02.861Z,7.30
2019-02-19T22:18:31.308Z,7.40
2019-02-19T22:21:04.633Z,7.50
2019-02-19T22:23:33.034Z,7.60
2019-02-19T22:26:01.520Z,7.70
2019-02-19T22:28:29.909Z,7.70
2019-02-19T22:30:59.276Z,7.80
2019-02-19T22:33:27.747Z,7.80
2019-02-19T22:35:56.159Z,7.80
2019-02-19T22:38:24.627Z,7.80
2019-02-19T22:40:55.247Z,7.80
2019-02-19T22:43:23.100Z,7.90
2019-02-19T22:45:51.511Z,7.80
2019-02-19T22:48:20.247Z,7.70
2019-02-19T22:50:48.978Z,7.60
2019-02-19T22:53:35.171Z,7.50
2019-02-19T22:56:05.262Z,7.50
2019-02-19T22:58:33.651Z,7.60
2019-02-19T23:01:07.659Z,7.60
2019-02-19T23:03:36.103Z,7.60
2019-02-19T23:06:04.488Z,7.60
2019-02-19T23:08:32.892Z,7.60
2019-02-19T23:11:01.351Z,7.60
2019-02-19T23:13:29.732Z,7.60
2019-02-19T23:15:58.130Z,7.70
2019-02-19T23:18:26.615Z,7.70
2019-02-19T23:20:55.061Z,7.70
2019-02-19T23:23:23.464Z,7.70
2019-02-19T23:25:51.861Z,7.80
2019-02-19T23:28:20.328Z,7.80
2019-02-19T23:30:48.714Z,7.80
2019-02-19T23:33:17.109Z,7.80
2019-02-19T23:36:05.272Z,7.80
2019-02-19T23:38:33.756Z,7.80
2019-02-19T23:41:03.078Z,7.70
2019-02-19T23:43:31.463Z,7.70
2019-02-19T23:45:59.864Z,7.70
2019-02-19T23:48:28.279Z,7.70
2019-02-19T23:50:56.765Z,7.80
2019-02-19T23:53:25.622Z,7.80
2019-02-19T23:55:54.044Z,7.80
2019-02-19T23:58:22.450Z,7.80
